sensor_id;sensor_type;location;lat;lon;timestamp;P1;durP1;ratioP1;P2;durP2;ratioP2
14088;SDS011;7120;52.890;6.040;2023-02-19T00:01:26;112.53;;;41.30;;
14088;SDS011;7120;52.890;6.040;2023-02-19T00:03:56;102.27;;;40.20;;
14088;SDS011;7120;52.890;6.040;2023-02-19T00:06:24;94.63;;;40.70;;
14088;SDS011;7120;52.890;6.040;2023-02-19T00:08:52;97.97;;;41.00;;
14088;SDS011;7120;52.890;6.040;2023-02-19T00:11:19;114.73;;;42.37;;
14088;SDS011;7120;52.890;6.040;2023-02-19T00:13:46;98.57;;;40.27;;
14088;SDS011;7120;52.890;6.040;2023-02-19T00:16:15;115.47;;;42.73;;
14088;SDS011;7120;52.890;6.040;2023-02-19T00:18:42;89.57;;;37.30;;
14088;SDS011;7120;52.890;6.040;2023-02-19T00:21:08;90.63;;;37.30;;
14088;SDS011;7120;52.890;6.040;2023-02-19T00:23:34;82.57;;;35.13;;
14088;SDS011;7120;52.890;6.040;2023-02-19T00:26:03;76.27;;;34.60;;
14088;SDS011;7120;52.890;6.040;2023-02-19T00:28:30;69.70;;;31.73;;
14088;SDS011;7120;52.890;6.040;2023-02-19T00:30:55;67.70;;;30.70;;
14088;SDS011;7120;52.890;6.040;2023-02-19T00:33:27;75.93;;;28.13;;
14088;SDS011;7120;52.890;6.040;2023-02-19T00:35:53;63.10;;;28.03;;
14088;SDS011;7120;52.890;6.040;2023-02-19T00:38:18;61.80;;;27.63;;
14088;SDS011;7120;52.890;6.040;2023-02-19T00:40:44;56.97;;;26.17;;
14088;SDS011;7120;52.890;6.040;2023-02-19T00:43:09;51.60;;;21.30;;
14088;SDS011;7120;52.890;6.040;2023-02-19T00:45:34;43.20;;;18.23;;
14088;SDS011;7120;52.890;6.040;2023-02-19T00:48:00;35.00;;;14.57;;
14088;SDS011;7120;52.890;6.040;2023-02-19T00:50:25;30.50;;;13.57;;
14088;SDS011;7120;52.890;6.040;2023-02-19T00:52:50;24.40;;;12.30;;
14088;SDS011;7120;52.890;6.040;2023-02-19T00:55:16;31.43;;;11.27;;
14088;SDS011;7120;52.890;6.040;2023-02-19T00:57:41;32.83;;;12.87;;
14088;SDS011;7120;52.890;6.040;2023-02-19T01:00:07;27.23;;;10.23;;
14088;SDS011;7120;52.890;6.040;2023-02-19T01:02:33;23.50;;;9.57;;
14088;SDS011;7120;52.890;6.040;2023-02-19T01:04:58;24.37;;;8.77;;
14088;SDS011;7120;52.890;6.040;2023-02-19T01:07:23;28.47;;;10.40;;
14088;SDS011;7120;52.890;6.040;2023-02-19T01:09:49;30.03;;;10.03;;
14088;SDS011;7120;52.890;6.040;2023-02-19T01:12:14;25.13;;;9.50;;
14088;SDS011;7120;52.890;6.040;2023-02-19T01:14:39;24.13;;;10.03;;
14088;SDS011;7120;52.890;6.040;2023-02-19T01:17:05;24.77;;;9.67;;
14088;SDS011;7120;52.890;6.040;2023-02-19T01:19:31;21.03;;;9.40;;
14088;SDS011;7120;52.890;6.040;2023-02-19T01:21:56;18.33;;;9.20;;
14088;SDS011;7120;52.890;6.040;2023-02-19T01:24:21;26.53;;;9.60;;
14088;SDS011;7120;52.890;6.040;2023-02-19T01:26:47;23.37;;;9.13;;
14088;SDS011;7120;52.890;6.040;2023-02-19T01:29:12;20.17;;;12.47;;
14088;SDS011;7120;52.890;6.040;2023-02-19T01:31:38;21.47;;;9.57;;
14088;SDS011;7120;52.890;6.040;2023-02-19T01:34:07;171.23;;;115.77;;
14088;SDS011;7120;52.890;6.040;2023-02-19T01:36:34;22.10;;;9.33;;
14088;SDS011;7120;52.890;6.040;2023-02-19T01:39:01;28.60;;;10.07;;
14088;SDS011;7120;52.890;6.040;2023-02-19T01:41:29;25.70;;;9.67;;
14088;SDS011;7120;52.890;6.040;2023-02-19T01:46:20;32.23;;;11.70;;
14088;SDS011;7120;52.890;6.040;2023-02-19T01:48:49;40.87;;;28.80;;
14088;SDS011;7120;52.890;6.040;2023-02-19T01:51:16;32.37;;;10.10;;
14088;SDS011;7120;52.890;6.040;2023-02-19T01:53:45;29.67;;;11.43;;
14088;SDS011;7120;52.890;6.040;2023-02-19T01:56:16;27.27;;;10.97;;
14088;SDS011;7120;52.890;6.040;2023-02-19T01:58:44;28.63;;;11.20;;
14088;SDS011;7120;52.890;6.040;2023-02-19T02:01:10;37.90;;;12.67;;
14088;SDS011;7120;52.890;6.040;2023-02-19T02:03:36;30.97;;;12.50;;
14088;SDS011;7120;52.890;6.040;2023-02-19T02:06:08;32.33;;;11.53;;
14088;SDS011;7120;52.890;6.040;2023-02-19T02:08:39;27.63;;;11.83;;
14088;SDS011;7120;52.890;6.040;2023-02-19T02:11:23;30.43;;;10.70;;
14088;SDS011;7120;52.890;6.040;2023-02-19T02:13:49;19.53;;;10.27;;
14088;SDS011;7120;52.890;6.040;2023-02-19T02:16:21;26.17;;;11.70;;
14088;SDS011;7120;52.890;6.040;2023-02-19T02:21:28;30.07;;;23.93;;
14088;SDS011;7120;52.890;6.040;2023-02-19T02:27:11;29.43;;;14.03;;
14088;SDS011;7120;52.890;6.040;2023-02-19T02:32:41;25.10;;;16.60;;
14088;SDS011;7120;52.890;6.040;2023-02-19T02:35:17;27.17;;;12.17;;
14088;SDS011;7120;52.890;6.040;2023-02-19T02:38:05;26.40;;;12.37;;
14088;SDS011;7120;52.890;6.040;2023-02-19T02:40:33;25.80;;;13.77;;
14088;SDS011;7120;52.890;6.040;2023-02-19T02:42:59;28.87;;;13.10;;
14088;SDS011;7120;52.890;6.040;2023-02-19T02:50:30;36.23;;;21.83;;
14088;SDS011;7120;52.890;6.040;2023-02-19T02:53:01;26.47;;;15.77;;
14088;SDS011;7120;52.890;6.040;2023-02-19T02:55:50;30.37;;;16.67;;
14088;SDS011;7120;52.890;6.040;2023-02-19T02:58:18;86.57;;;78.97;;
14088;SDS011;7120;52.890;6.040;2023-02-19T03:00:47;31.30;;;15.43;;
14088;SDS011;7120;52.890;6.040;2023-02-19T03:03:36;44.83;;;20.43;;
14088;SDS011;7120;52.890;6.040;2023-02-19T03:06:05;39.73;;;17.67;;
14088;SDS011;7120;52.890;6.040;2023-02-19T03:08:43;38.47;;;16.10;;
14088;SDS011;7120;52.890;6.040;2023-02-19T03:11:16;44.30;;;29.60;;
14088;SDS011;7120;52.890;6.040;2023-02-19T03:14:03;214.87;;;193.73;;
14088;SDS011;7120;52.890;6.040;2023-02-19T03:16:55;34.10;;;17.37;;
14088;SDS011;7120;52.890;6.040;2023-02-19T03:19:44;38.43;;;17.97;;
14088;SDS011;7120;52.890;6.040;2023-02-19T03:22:47;40.30;;;18.70;;
14088;SDS011;7120;52.890;6.040;2023-02-19T03:25:15;50.40;;;20.40;;
14088;SDS011;7120;52.890;6.040;2023-02-19T03:28:02;46.47;;;23.37;;
14088;SDS011;7120;52.890;6.040;2023-02-19T03:30:32;42.97;;;24.17;;
14088;SDS011;7120;52.890;6.040;2023-02-19T03:35:32;45.37;;;20.07;;
14088;SDS011;7120;52.890;6.040;2023-02-19T03:38:14;46.63;;;21.23;;
14088;SDS011;7120;52.890;6.040;2023-02-19T03:43:23;43.60;;;24.33;;
14088;SDS011;7120;52.890;6.040;2023-02-19T03:46:20;38.57;;;19.03;;
14088;SDS011;7120;52.890;6.040;2023-02-19T03:48:49;39.07;;;18.17;;
14088;SDS011;7120;52.890;6.040;2023-02-19T03:54:06;48.73;;;20.27;;
14088;SDS011;7120;52.890;6.040;2023-02-19T03:56:49;42.53;;;17.43;;
14088;SDS011;7120;52.890;6.040;2023-02-19T03:59:35;35.10;;;16.63;;
14088;SDS011;7120;52.890;6.040;2023-02-19T04:02:14;32.90;;;16.27;;
14088;SDS011;7120;52.890;6.040;2023-02-19T04:04:53;38.97;;;18.20;;
14088;SDS011;7120;52.890;6.040;2023-02-19T04:07:27;36.53;;;18.33;;
14088;SDS011;7120;52.890;6.040;2023-02-19T04:09:57;31.73;;;17.23;;
14088;SDS011;7120;52.890;6.040;2023-02-19T04:12:23;35.87;;;15.70;;
14088;SDS011;7120;52.890;6.040;2023-02-19T04:14:51;32.17;;;15.83;;
14088;SDS011;7120;52.890;6.040;2023-02-19T04:17:23;33.77;;;16.87;;
14088;SDS011;7120;52.890;6.040;2023-02-19T04:19:53;35.63;;;16.33;;
14088;SDS011;7120;52.890;6.040;2023-02-19T04:22:21;30.97;;;14.77;;
14088;SDS011;7120;52.890;6.040;2023-02-19T04:24:48;29.60;;;16.23;;
14088;SDS011;7120;52.890;6.040;2023-02-19T04:27:17;29.10;;;16.60;;
14088;SDS011;7120;52.890;6.040;2023-02-19T04:29:43;28.43;;;15.87;;
14088;SDS011;7120;52.890;6.040;2023-02-19T04:32:09;36.57;;;16.00;;
14088;SDS011;7120;52.890;6.040;2023-02-19T04:34:35;26.40;;;15.03;;
14088;SDS011;7120;52.890;6.040;2023-02-19T04:37:01;31.57;;;15.33;;
14088;SDS011;7120;52.890;6.040;2023-02-19T04:39:26;33.30;;;15.60;;
14088;SDS011;7120;52.890;6.040;2023-02-19T04:41:52;29.23;;;15.40;;
14088;SDS011;7120;52.890;6.040;2023-02-19T04:44:17;31.40;;;15.73;;
14088;SDS011;7120;52.890;6.040;2023-02-19T04:46:42;29.07;;;14.77;;
14088;SDS011;7120;52.890;6.040;2023-02-19T04:49:08;30.03;;;15.87;;
14088;SDS011;7120;52.890;6.040;2023-02-19T04:51:33;32.43;;;14.33;;
14088;SDS011;7120;52.890;6.040;2023-02-19T04:53:58;31.77;;;16.00;;
14088;SDS011;7120;52.890;6.040;2023-02-19T04:56:24;38.33;;;17.83;;
14088;SDS011;7120;52.890;6.040;2023-02-19T04:58:49;34.07;;;15.83;;
14088;SDS011;7120;52.890;6.040;2023-02-19T05:01:14;25.47;;;15.27;;
14088;SDS011;7120;52.890;6.040;2023-02-19T05:03:40;32.47;;;14.90;;
14088;SDS011;7120;52.890;6.040;2023-02-19T05:06:07;29.10;;;13.97;;
14088;SDS011;7120;52.890;6.040;2023-02-19T05:08:34;22.80;;;13.97;;
14088;SDS011;7120;52.890;6.040;2023-02-19T05:11:00;24.80;;;14.00;;
14088;SDS011;7120;52.890;6.040;2023-02-19T05:13:27;23.33;;;15.27;;
14088;SDS011;7120;52.890;6.040;2023-02-19T05:16:00;40.73;;;37.17;;
14088;SDS011;7120;52.890;6.040;2023-02-19T05:18:31;18.93;;;11.00;;
14088;SDS011;7120;52.890;6.040;2023-02-19T05:20:58;15.77;;;8.77;;
14088;SDS011;7120;52.890;6.040;2023-02-19T05:23:24;18.17;;;16.47;;
14088;SDS011;7120;52.890;6.040;2023-02-19T05:25:51;10.23;;;5.93;;
14088;SDS011;7120;52.890;6.040;2023-02-19T05:28:16;8.30;;;5.67;;
14088;SDS011;7120;52.890;6.040;2023-02-19T05:30:46;8.97;;;6.33;;
14088;SDS011;7120;52.890;6.040;2023-02-19T05:33:16;7.13;;;5.50;;
14088;SDS011;7120;52.890;6.040;2023-02-19T05:35:43;131.27;;;121.33;;
14088;SDS011;7120;52.890;6.040;2023-02-19T05:38:11;13.37;;;12.13;;
14088;SDS011;7120;52.890;6.040;2023-02-19T05:40:37;7.53;;;6.83;;
14088;SDS011;7120;52.890;6.040;2023-02-19T05:43:03;6.73;;;4.97;;
14088;SDS011;7120;52.890;6.040;2023-02-19T05:45:28;6.63;;;5.33;;
14088;SDS011;7120;52.890;6.040;2023-02-19T05:47:54;8.57;;;5.70;;
14088;SDS011;7120;52.890;6.040;2023-02-19T05:50:19;7.20;;;5.70;;
14088;SDS011;7120;52.890;6.040;2023-02-19T05:52:45;9.20;;;7.27;;
14088;SDS011;7120;52.890;6.040;2023-02-19T05:55:10;14.97;;;13.70;;
14088;SDS011;7120;52.890;6.040;2023-02-19T05:57:39;8.30;;;6.37;;
14088;SDS011;7120;52.890;6.040;2023-02-19T06:00:06;8.70;;;5.67;;
14088;SDS011;7120;52.890;6.040;2023-02-19T06:02:34;8.90;;;6.20;;
14088;SDS011;7120;52.890;6.040;2023-02-19T06:05:00;8.90;;;8.00;;
14088;SDS011;7120;52.890;6.040;2023-02-19T06:07:26;7.27;;;4.57;;
14088;SDS011;7120;52.890;6.040;2023-02-19T06:09:51;7.53;;;4.77;;
14088;SDS011;7120;52.890;6.040;2023-02-19T06:12:16;5.53;;;4.47;;
14088;SDS011;7120;52.890;6.040;2023-02-19T06:14:42;7.07;;;4.10;;
14088;SDS011;7120;52.890;6.040;2023-02-19T06:17:07;6.33;;;5.13;;
14088;SDS011;7120;52.890;6.040;2023-02-19T06:19:33;6.60;;;4.60;;
14088;SDS011;7120;52.890;6.040;2023-02-19T06:21:58;7.93;;;4.13;;
14088;SDS011;7120;52.890;6.040;2023-02-19T06:24:23;5.73;;;4.23;;
14088;SDS011;7120;52.890;6.040;2023-02-19T06:26:49;12.43;;;4.83;;
14088;SDS011;7120;52.890;6.040;2023-02-19T06:29:15;8.83;;;4.37;;
14088;SDS011;7120;52.890;6.040;2023-02-19T06:31:41;9.50;;;4.60;;
14088;SDS011;7120;52.890;6.040;2023-02-19T06:34:06;7.77;;;5.40;;
14088;SDS011;7120;52.890;6.040;2023-02-19T06:36:31;7.97;;;4.60;;
14088;SDS011;7120;52.890;6.040;2023-02-19T06:39:01;7.67;;;4.77;;
14088;SDS011;7120;52.890;6.040;2023-02-19T06:41:28;11.47;;;5.73;;
14088;SDS011;7120;52.890;6.040;2023-02-19T06:43:53;1398.83;;;687.10;;
14088;SDS011;7120;52.890;6.040;2023-02-19T06:46:21;8.20;;;5.57;;
14088;SDS011;7120;52.890;6.040;2023-02-19T06:48:46;9.93;;;6.00;;
14088;SDS011;7120;52.890;6.040;2023-02-19T06:51:15;53.93;;;49.90;;
14088;SDS011;7120;52.890;6.040;2023-02-19T06:53:43;12.27;;;7.10;;
14088;SDS011;7120;52.890;6.040;2023-02-19T06:56:28;9.30;;;7.17;;
14088;SDS011;7120;52.890;6.040;2023-02-19T06:58:57;11.27;;;8.27;;
14088;SDS011;7120;52.890;6.040;2023-02-19T07:01:24;10.23;;;7.07;;
14088;SDS011;7120;52.890;6.040;2023-02-19T07:03:50;16.27;;;14.97;;
14088;SDS011;7120;52.890;6.040;2023-02-19T07:06:19;6.00;;;5.40;;
14088;SDS011;7120;52.890;6.040;2023-02-19T07:08:46;7.83;;;6.97;;
14088;SDS011;7120;52.890;6.040;2023-02-19T07:11:11;4.63;;;4.10;;
14088;SDS011;7120;52.890;6.040;2023-02-19T07:13:37;8.90;;;8.27;;
14088;SDS011;7120;52.890;6.040;2023-02-19T07:16:03;6.90;;;6.40;;
14088;SDS011;7120;52.890;6.040;2023-02-19T07:18:34;4.13;;;3.77;;
14088;SDS011;7120;52.890;6.040;2023-02-19T07:21:02;8.50;;;7.90;;
14088;SDS011;7120;52.890;6.040;2023-02-19T07:23:29;4.93;;;3.57;;
14088;SDS011;7120;52.890;6.040;2023-02-19T07:25:54;3.97;;;3.73;;
14088;SDS011;7120;52.890;6.040;2023-02-19T07:28:20;4.60;;;3.10;;
14088;SDS011;7120;52.890;6.040;2023-02-19T07:30:45;3.37;;;2.50;;
14088;SDS011;7120;52.890;6.040;2023-02-19T07:33:10;3.73;;;3.33;;
14088;SDS011;7120;52.890;6.040;2023-02-19T07:35:36;4.43;;;3.13;;
14088;SDS011;7120;52.890;6.040;2023-02-19T07:38:01;5.40;;;4.53;;
14088;SDS011;7120;52.890;6.040;2023-02-19T07:40:27;3.17;;;2.40;;
14088;SDS011;7120;52.890;6.040;2023-02-19T07:42:52;2.40;;;2.30;;
14088;SDS011;7120;52.890;6.040;2023-02-19T07:45:17;3.13;;;2.60;;
14088;SDS011;7120;52.890;6.040;2023-02-19T07:47:43;3.10;;;2.33;;
14088;SDS011;7120;52.890;6.040;2023-02-19T07:50:08;2.40;;;2.00;;
14088;SDS011;7120;52.890;6.040;2023-02-19T07:52:33;2.77;;;2.57;;
14088;SDS011;7120;52.890;6.040;2023-02-19T07:54:59;4.50;;;2.33;;
14088;SDS011;7120;52.890;6.040;2023-02-19T07:57:26;3.30;;;3.10;;
14088;SDS011;7120;52.890;6.040;2023-02-19T07:59:52;3.57;;;3.27;;
14088;SDS011;7120;52.890;6.040;2023-02-19T08:02:18;3.93;;;2.40;;
14088;SDS011;7120;52.890;6.040;2023-02-19T08:05:04;3.33;;;2.90;;
14088;SDS011;7120;52.890;6.040;2023-02-19T08:07:33;6.90;;;6.50;;
14088;SDS011;7120;52.890;6.040;2023-02-19T08:10:00;4.20;;;3.87;;
14088;SDS011;7120;52.890;6.040;2023-02-19T08:12:45;2.97;;;2.77;;
14088;SDS011;7120;52.890;6.040;2023-02-19T08:15:37;3.90;;;3.60;;
14088;SDS011;7120;52.890;6.040;2023-02-19T08:18:02;2.90;;;2.53;;
14088;SDS011;7120;52.890;6.040;2023-02-19T08:20:28;3.20;;;3.00;;
14088;SDS011;7120;52.890;6.040;2023-02-19T08:22:53;5.47;;;2.80;;
14088;SDS011;7120;52.890;6.040;2023-02-19T08:25:19;4.77;;;4.47;;
14088;SDS011;7120;52.890;6.040;2023-02-19T08:27:44;3.63;;;3.43;;
14088;SDS011;7120;52.890;6.040;2023-02-19T08:30:10;4.03;;;3.73;;
14088;SDS011;7120;52.890;6.040;2023-02-19T08:32:35;3.23;;;3.03;;
14088;SDS011;7120;52.890;6.040;2023-02-19T08:35:00;4.50;;;4.10;;
14088;SDS011;7120;52.890;6.040;2023-02-19T08:37:26;9.47;;;8.57;;
14088;SDS011;7120;52.890;6.040;2023-02-19T08:39:51;15.47;;;12.57;;
14088;SDS011;7120;52.890;6.040;2023-02-19T08:42:16;4.00;;;3.80;;
14088;SDS011;7120;52.890;6.040;2023-02-19T08:44:42;4.10;;;3.90;;
14088;SDS011;7120;52.890;6.040;2023-02-19T08:47:07;32.60;;;29.20;;
14088;SDS011;7120;52.890;6.040;2023-02-19T08:49:32;14.50;;;13.80;;
14088;SDS011;7120;52.890;6.040;2023-02-19T08:51:58;4.23;;;4.03;;
14088;SDS011;7120;52.890;6.040;2023-02-19T08:54:23;6.83;;;6.43;;
14088;SDS011;7120;52.890;6.040;2023-02-19T08:56:48;32.87;;;31.50;;
14088;SDS011;7120;52.890;6.040;2023-02-19T08:59:14;76.40;;;73.40;;
14088;SDS011;7120;52.890;6.040;2023-02-19T09:01:39;125.97;;;121.13;;
14088;SDS011;7120;52.890;6.040;2023-02-19T09:04:04;168.10;;;161.87;;
14088;SDS011;7120;52.890;6.040;2023-02-19T09:06:30;305.00;;;293.53;;
14088;SDS011;7120;52.890;6.040;2023-02-19T09:08:55;333.37;;;320.83;;
14088;SDS011;7120;52.890;6.040;2023-02-19T09:11:20;415.40;;;398.57;;
14088;SDS011;7120;52.890;6.040;2023-02-19T09:13:46;313.90;;;302.23;;
14088;SDS011;7120;52.890;6.040;2023-02-19T09:16:11;326.00;;;313.93;;
14088;SDS011;7120;52.890;6.040;2023-02-19T09:18:37;276.73;;;266.60;;
14088;SDS011;7120;52.890;6.040;2023-02-19T09:21:03;192.63;;;185.07;;
14088;SDS011;7120;52.890;6.040;2023-02-19T09:23:31;220.77;;;212.67;;
14088;SDS011;7120;52.890;6.040;2023-02-19T09:25:57;195.20;;;188.10;;
14088;SDS011;7120;52.890;6.040;2023-02-19T09:28:24;130.63;;;125.37;;
14088;SDS011;7120;52.890;6.040;2023-02-19T09:30:50;160.50;;;154.53;;
14088;SDS011;7120;52.890;6.040;2023-02-19T09:33:15;231.33;;;222.93;;
14088;SDS011;7120;52.890;6.040;2023-02-19T09:35:40;305.73;;;294.40;;
14088;SDS011;7120;52.890;6.040;2023-02-19T09:38:06;412.00;;;396.30;;
14088;SDS011;7120;52.890;6.040;2023-02-19T09:40:31;375.13;;;360.63;;
14088;SDS011;7120;52.890;6.040;2023-02-19T09:42:59;336.47;;;323.83;;
14088;SDS011;7120;52.890;6.040;2023-02-19T09:45:24;385.43;;;370.70;;
14088;SDS011;7120;52.890;6.040;2023-02-19T09:47:56;329.30;;;317.20;;
14088;SDS011;7120;52.890;6.040;2023-02-19T09:50:26;359.53;;;345.83;;
14088;SDS011;7120;52.890;6.040;2023-02-19T09:52:58;398.80;;;383.03;;
14088;SDS011;7120;52.890;6.040;2023-02-19T09:55:31;401.20;;;385.87;;
14088;SDS011;7120;52.890;6.040;2023-02-19T09:57:59;540.03;;;517.53;;
14088;SDS011;7120;52.890;6.040;2023-02-19T10:00:28;799.73;;;757.10;;
14088;SDS011;7120;52.890;6.040;2023-02-19T10:02:59;717.53;;;682.80;;
14088;SDS011;7120;52.890;6.040;2023-02-19T10:05:29;807.67;;;764.70;;
14088;SDS011;7120;52.890;6.040;2023-02-19T10:07:55;821.23;;;776.37;;
14088;SDS011;7120;52.890;6.040;2023-02-19T10:10:29;936.63;;;877.03;;
14088;SDS011;7120;52.890;6.040;2023-02-19T10:15:51;1999.90;;;999.90;;
14088;SDS011;7120;52.890;6.040;2023-02-19T10:18:24;885.00;;;833.57;;
14088;SDS011;7120;52.890;6.040;2023-02-19T10:20:52;905.10;;;849.57;;
14088;SDS011;7120;52.890;6.040;2023-02-19T10:23:20;785.63;;;742.90;;
14088;SDS011;7120;52.890;6.040;2023-02-19T10:25:50;731.70;;;695.43;;
14088;SDS011;7120;52.890;6.040;2023-02-19T10:28:19;651.47;;;620.90;;
14088;SDS011;7120;52.890;6.040;2023-02-19T10:30:49;479.97;;;460.23;;
14088;SDS011;7120;52.890;6.040;2023-02-19T10:33:17;698.67;;;665.00;;
14088;SDS011;7120;52.890;6.040;2023-02-19T10:35:59;808.10;;;765.03;;
14088;SDS011;7120;52.890;6.040;2023-02-19T10:38:29;950.87;;;893.17;;
14088;SDS011;7120;52.890;6.040;2023-02-19T10:41:01;962.97;;;898.87;;
14088;SDS011;7120;52.890;6.040;2023-02-19T10:43:29;813.73;;;766.77;;
14088;SDS011;7120;52.890;6.040;2023-02-19T10:46:00;703.00;;;668.83;;
14088;SDS011;7120;52.890;6.040;2023-02-19T10:48:28;711.37;;;677.50;;
14088;SDS011;7120;52.890;6.040;2023-02-19T10:51:01;540.50;;;517.17;;
14088;SDS011;7120;52.890;6.040;2023-02-19T10:53:43;376.47;;;361.47;;
14088;SDS011;7120;52.890;6.040;2023-02-19T10:56:11;549.93;;;525.90;;
14088;SDS011;7120;52.890;6.040;2023-02-19T10:58:48;502.93;;;481.30;;
14088;SDS011;7120;52.890;6.040;2023-02-19T11:03:43;682.53;;;649.67;;
14088;SDS011;7120;52.890;6.040;2023-02-19T11:06:10;630.60;;;602.03;;
14088;SDS011;7120;52.890;6.040;2023-02-19T11:08:51;584.10;;;558.30;;
14088;SDS011;7120;52.890;6.040;2023-02-19T11:14:00;565.23;;;539.63;;
14088;SDS011;7120;52.890;6.040;2023-02-19T11:16:41;489.20;;;468.80;;
14088;SDS011;7120;52.890;6.040;2023-02-19T11:22:19;583.83;;;557.40;;
14088;SDS011;7120;52.890;6.040;2023-02-19T11:24:57;652.63;;;619.87;;
14088;SDS011;7120;52.890;6.040;2023-02-19T11:27:27;638.30;;;609.17;;
14088;SDS011;7120;52.890;6.040;2023-02-19T11:29:53;533.97;;;511.27;;
14088;SDS011;7120;52.890;6.040;2023-02-19T11:34:43;660.10;;;629.20;;
14088;SDS011;7120;52.890;6.040;2023-02-19T11:37:13;694.53;;;661.43;;
14088;SDS011;7120;52.890;6.040;2023-02-19T11:39:42;681.70;;;649.40;;
14088;SDS011;7120;52.890;6.040;2023-02-19T11:50:21;743.73;;;706.43;;
14088;SDS011;7120;52.890;6.040;2023-02-19T11:55:33;1999.90;;;999.90;;
14088;SDS011;7120;52.890;6.040;2023-02-19T12:03:42;1999.90;;;999.90;;
14088;SDS011;7120;52.890;6.040;2023-02-19T12:06:31;1999.90;;;999.90;;
14088;SDS011;7120;52.890;6.040;2023-02-19T12:12:03;1999.90;;;999.90;;
14088;SDS011;7120;52.890;6.040;2023-02-19T12:17:37;1999.90;;;999.90;;
14088;SDS011;7120;52.890;6.040;2023-02-19T12:21:01;1999.90;;;999.90;;
14088;SDS011;7120;52.890;6.040;2023-02-19T12:44:37;1999.90;;;999.90;;
14088;SDS011;7120;52.890;6.040;2023-02-19T12:47:09;1400.63;;;729.43;;
14088;SDS011;7120;52.890;6.040;2023-02-19T12:49:43;1999.90;;;999.90;;
14088;SDS011;7120;52.890;6.040;2023-02-19T12:52:18;1999.90;;;999.90;;
14088;SDS011;7120;52.890;6.040;2023-02-19T12:54:51;1999.90;;;999.90;;
14088;SDS011;7120;52.890;6.040;2023-02-19T12:59:47;1999.90;;;999.90;;
14088;SDS011;7120;52.890;6.040;2023-02-19T13:02:40;1999.90;;;999.90;;
14088;SDS011;7120;52.890;6.040;2023-02-19T13:11:00;1999.90;;;999.90;;
14088;SDS011;7120;52.890;6.040;2023-02-19T13:13:33;1999.90;;;999.90;;
14088;SDS011;7120;52.890;6.040;2023-02-19T13:16:07;1999.90;;;999.90;;
14088;SDS011;7120;52.890;6.040;2023-02-19T13:18:47;1999.90;;;999.90;;
14088;SDS011;7120;52.890;6.040;2023-02-19T13:21:16;763.30;;;422.80;;
14088;SDS011;7120;52.890;6.040;2023-02-19T13:24:10;1999.90;;;999.90;;
14088;SDS011;7120;52.890;6.040;2023-02-19T13:26:47;1999.90;;;999.90;;
14088;SDS011;7120;52.890;6.040;2023-02-19T13:29:17;1417.13;;;744.43;;
14088;SDS011;7120;52.890;6.040;2023-02-19T13:37:05;1999.90;;;999.90;;
14088;SDS011;7120;52.890;6.040;2023-02-19T13:39:32;1999.90;;;999.90;;
14088;SDS011;7120;52.890;6.040;2023-02-19T13:41:58;1999.90;;;999.90;;
14088;SDS011;7120;52.890;6.040;2023-02-19T13:44:27;1999.90;;;999.90;;
14088;SDS011;7120;52.890;6.040;2023-02-19T13:46:55;1999.90;;;999.90;;
14088;SDS011;7120;52.890;6.040;2023-02-19T13:51:55;1999.90;;;999.90;;
14088;SDS011;7120;52.890;6.040;2023-02-19T13:54:26;1999.90;;;999.90;;
14088;SDS011;7120;52.890;6.040;2023-02-19T13:59:50;1999.90;;;999.90;;
14088;SDS011;7120;52.890;6.040;2023-02-19T14:04:51;1999.90;;;999.90;;
14088;SDS011;7120;52.890;6.040;2023-02-19T14:14:49;1999.90;;;999.90;;
14088;SDS011;7120;52.890;6.040;2023-02-19T14:17:29;1999.90;;;999.90;;
14088;SDS011;7120;52.890;6.040;2023-02-19T14:20:11;1999.90;;;999.90;;
14088;SDS011;7120;52.890;6.040;2023-02-19T14:23:00;1999.90;;;999.90;;
14088;SDS011;7120;52.890;6.040;2023-02-19T14:25:38;1999.90;;;999.90;;
14088;SDS011;7120;52.890;6.040;2023-02-19T14:30:41;1999.90;;;999.90;;
14088;SDS011;7120;52.890;6.040;2023-02-19T14:33:09;1999.90;;;999.90;;
14088;SDS011;7120;52.890;6.040;2023-02-19T14:35:39;1999.90;;;999.90;;
14088;SDS011;7120;52.890;6.040;2023-02-19T14:38:09;1999.90;;;999.90;;
14088;SDS011;7120;52.890;6.040;2023-02-19T14:40:42;1999.90;;;999.90;;
14088;SDS011;7120;52.890;6.040;2023-02-19T14:43:11;1999.90;;;999.90;;
14088;SDS011;7120;52.890;6.040;2023-02-19T14:46:00;1999.90;;;999.90;;
14088;SDS011;7120;52.890;6.040;2023-02-19T14:48:28;1999.90;;;999.90;;
14088;SDS011;7120;52.890;6.040;2023-02-19T14:51:01;1999.90;;;999.90;;
14088;SDS011;7120;52.890;6.040;2023-02-19T14:53:30;1999.90;;;999.90;;
14088;SDS011;7120;52.890;6.040;2023-02-19T14:56:01;1999.90;;;999.90;;
14088;SDS011;7120;52.890;6.040;2023-02-19T14:58:29;1999.90;;;999.90;;
14088;SDS011;7120;52.890;6.040;2023-02-19T15:00:56;1999.90;;;999.90;;
14088;SDS011;7120;52.890;6.040;2023-02-19T15:03:32;1999.90;;;999.90;;
14088;SDS011;7120;52.890;6.040;2023-02-19T15:06:06;581.40;;;542.27;;
14088;SDS011;7120;52.890;6.040;2023-02-19T15:08:37;659.67;;;613.30;;
14088;SDS011;7120;52.890;6.040;2023-02-19T15:11:07;867.03;;;810.53;;
14088;SDS011;7120;52.890;6.040;2023-02-19T15:13:36;859.93;;;807.63;;
14088;SDS011;7120;52.890;6.040;2023-02-19T15:16:01;923.60;;;863.30;;
14088;SDS011;7120;52.890;6.040;2023-02-19T15:18:27;955.07;;;886.97;;
14088;SDS011;7120;52.890;6.040;2023-02-19T15:20:57;912.33;;;849.17;;
14088;SDS011;7120;52.890;6.040;2023-02-19T15:23:25;961.20;;;892.70;;
14088;SDS011;7120;52.890;6.040;2023-02-19T15:25:54;1016.70;;;945.73;;
14088;SDS011;7120;52.890;6.040;2023-02-19T15:28:26;979.40;;;913.27;;
14088;SDS011;7120;52.890;6.040;2023-02-19T15:33:22;955.80;;;893.40;;
14088;SDS011;7120;52.890;6.040;2023-02-19T15:35:49;943.13;;;882.43;;
14088;SDS011;7120;52.890;6.040;2023-02-19T15:38:16;948.40;;;888.70;;
14088;SDS011;7120;52.890;6.040;2023-02-19T15:40:43;919.67;;;861.23;;
14088;SDS011;7120;52.890;6.040;2023-02-19T15:45:49;971.07;;;907.87;;
14088;SDS011;7120;52.890;6.040;2023-02-19T15:48:18;994.70;;;925.57;;
14088;SDS011;7120;52.890;6.040;2023-02-19T15:50:54;937.43;;;877.07;;
14088;SDS011;7120;52.890;6.040;2023-02-19T15:53:29;946.47;;;883.27;;
14088;SDS011;7120;52.890;6.040;2023-02-19T15:56:00;867.43;;;814.47;;
14088;SDS011;7120;52.890;6.040;2023-02-19T15:58:45;906.20;;;850.40;;
14088;SDS011;7120;52.890;6.040;2023-02-19T16:01:34;980.10;;;915.40;;
14088;SDS011;7120;52.890;6.040;2023-02-19T16:04:01;874.97;;;823.50;;
14088;SDS011;7120;52.890;6.040;2023-02-19T16:06:27;913.50;;;856.17;;
14088;SDS011;7120;52.890;6.040;2023-02-19T16:14:15;910.80;;;854.63;;
14088;SDS011;7120;52.890;6.040;2023-02-19T16:16:53;574.67;;;527.77;;
14088;SDS011;7120;52.890;6.040;2023-02-19T16:19:22;626.47;;;589.37;;
14088;SDS011;7120;52.890;6.040;2023-02-19T16:21:50;132.97;;;127.57;;
14088;SDS011;7120;52.890;6.040;2023-02-19T16:24:26;95.67;;;91.47;;
14088;SDS011;7120;52.890;6.040;2023-02-19T16:26:55;74.87;;;71.17;;
14088;SDS011;7120;52.890;6.040;2023-02-19T16:29:22;83.43;;;79.43;;
14088;SDS011;7120;52.890;6.040;2023-02-19T16:31:51;60.20;;;56.83;;
14088;SDS011;7120;52.890;6.040;2023-02-19T16:34:28;52.63;;;50.20;;
14088;SDS011;7120;52.890;6.040;2023-02-19T16:37:04;50.97;;;48.37;;
14088;SDS011;7120;52.890;6.040;2023-02-19T16:45:30;28.43;;;26.73;;
14088;SDS011;7120;52.890;6.040;2023-02-19T16:47:55;70.23;;;66.47;;
14088;SDS011;7120;52.890;6.040;2023-02-19T16:50:21;24.70;;;22.93;;
14088;SDS011;7120;52.890;6.040;2023-02-19T16:52:58;17.10;;;16.10;;